sensor_id;sensor_type;location;lat;lon;timestamp;P1;durP1;ratioP1;P2;durP2;ratioP2
58240;SDS011;45058;55.772;38.224;2023-12-04T00:02:22;18.03;;;9.47;;
58240;SDS011;45058;55.772;38.224;2023-12-04T00:04:49;21.37;;;9.77;;
58240;SDS011;45058;55.772;38.224;2023-12-04T00:07:15;17.83;;;9.53;;
58240;SDS011;45058;55.772;38.224;2023-12-04T00:09:41;16.03;;;9.07;;
58240;SDS011;45058;55.772;38.224;2023-12-04T00:12:09;16.33;;;9.03;;
58240;SDS011;45058;55.772;38.224;2023-12-04T00:14:35;15.37;;;8.70;;
58240;SDS011;45058;55.772;38.224;2023-12-04T00:17:01;17.97;;;8.77;;
58240;SDS011;45058;55.772;38.224;2023-12-04T00:19:27;14.20;;;8.43;;
58240;SDS011;45058;55.772;38.224;2023-12-04T00:21:53;17.13;;;8.83;;
58240;SDS011;45058;55.772;38.224;2023-12-04T00:24:19;20.50;;;10.47;;
58240;SDS011;45058;55.772;38.224;2023-12-04T00:26:45;19.13;;;9.77;;
58240;SDS011;45058;55.772;38.224;2023-12-04T00:29:11;17.43;;;9.50;;
58240;SDS011;45058;55.772;38.224;2023-12-04T00:31:38;19.43;;;9.97;;
58240;SDS011;45058;55.772;38.224;2023-12-04T00:34:04;19.20;;;8.33;;
58240;SDS011;45058;55.772;38.224;2023-12-04T00:36:30;15.27;;;8.27;;
58240;SDS011;45058;55.772;38.224;2023-12-04T00:38:56;17.60;;;8.90;;
58240;SDS011;45058;55.772;38.224;2023-12-04T00:41:22;16.40;;;8.37;;
58240;SDS011;45058;55.772;38.224;2023-12-04T00:43:48;15.73;;;8.10;;
58240;SDS011;45058;55.772;38.224;2023-12-04T00:46:14;18.27;;;8.93;;
58240;SDS011;45058;55.772;38.224;2023-12-04T00:48:40;22.27;;;9.13;;
58240;SDS011;45058;55.772;38.224;2023-12-04T00:51:06;18.93;;;8.30;;
58240;SDS011;45058;55.772;38.224;2023-12-04T00:53:32;15.80;;;8.63;;
58240;SDS011;45058;55.772;38.224;2023-12-04T00:55:58;16.43;;;8.43;;
58240;SDS011;45058;55.772;38.224;2023-12-04T00:58:25;20.20;;;6.90;;
58240;SDS011;45058;55.772;38.224;2023-12-04T01:00:51;18.03;;;9.10;;
58240;SDS011;45058;55.772;38.224;2023-12-04T01:03:17;18.67;;;9.47;;
58240;SDS011;45058;55.772;38.224;2023-12-04T01:05:43;16.57;;;7.70;;
58240;SDS011;45058;55.772;38.224;2023-12-04T01:08:10;14.93;;;7.90;;
58240;SDS011;45058;55.772;38.224;2023-12-04T01:10:36;14.67;;;8.43;;
58240;SDS011;45058;55.772;38.224;2023-12-04T01:13:02;13.73;;;7.80;;
58240;SDS011;45058;55.772;38.224;2023-12-04T01:15:28;16.77;;;9.33;;
58240;SDS011;45058;55.772;38.224;2023-12-04T01:17:54;15.87;;;8.47;;
58240;SDS011;45058;55.772;38.224;2023-12-04T01:20:20;18.53;;;9.40;;
58240;SDS011;45058;55.772;38.224;2023-12-04T01:22:46;18.10;;;9.80;;
58240;SDS011;45058;55.772;38.224;2023-12-04T01:25:12;16.53;;;8.50;;
58240;SDS011;45058;55.772;38.224;2023-12-04T01:27:38;16.93;;;8.77;;
58240;SDS011;45058;55.772;38.224;2023-12-04T01:30:05;16.57;;;8.60;;
58240;SDS011;45058;55.772;38.224;2023-12-04T01:32:34;17.33;;;9.83;;
58240;SDS011;45058;55.772;38.224;2023-12-04T01:35:01;16.70;;;9.10;;
58240;SDS011;45058;55.772;38.224;2023-12-04T01:37:29;15.73;;;8.37;;
58240;SDS011;45058;55.772;38.224;2023-12-04T01:39:55;17.07;;;8.70;;
58240;SDS011;45058;55.772;38.224;2023-12-04T01:42:21;19.10;;;8.97;;
58240;SDS011;45058;55.772;38.224;2023-12-04T01:44:47;18.97;;;8.70;;
58240;SDS011;45058;55.772;38.224;2023-12-04T01:47:13;16.23;;;8.67;;
58240;SDS011;45058;55.772;38.224;2023-12-04T01:49:39;21.07;;;9.47;;
58240;SDS011;45058;55.772;38.224;2023-12-04T01:52:06;17.93;;;9.07;;
58240;SDS011;45058;55.772;38.224;2023-12-04T01:54:32;19.50;;;9.57;;
58240;SDS011;45058;55.772;38.224;2023-12-04T01:56:58;17.80;;;8.43;;
58240;SDS011;45058;55.772;38.224;2023-12-04T01:59:25;17.43;;;8.50;;
58240;SDS011;45058;55.772;38.224;2023-12-04T02:01:51;16.70;;;8.00;;
58240;SDS011;45058;55.772;38.224;2023-12-04T02:04:17;16.70;;;8.30;;
58240;SDS011;45058;55.772;38.224;2023-12-04T02:06:44;15.97;;;8.03;;
58240;SDS011;45058;55.772;38.224;2023-12-04T02:09:10;17.13;;;8.07;;
58240;SDS011;45058;55.772;38.224;2023-12-04T02:11:38;19.10;;;9.07;;
58240;SDS011;45058;55.772;38.224;2023-12-04T02:14:06;18.43;;;8.67;;
58240;SDS011;45058;55.772;38.224;2023-12-04T02:16:32;20.00;;;8.47;;
58240;SDS011;45058;55.772;38.224;2023-12-04T02:19:06;18.50;;;9.07;;
58240;SDS011;45058;55.772;38.224;2023-12-04T02:21:33;20.10;;;9.17;;
58240;SDS011;45058;55.772;38.224;2023-12-04T02:23:59;14.73;;;7.90;;
58240;SDS011;45058;55.772;38.224;2023-12-04T02:26:28;17.60;;;8.67;;
58240;SDS011;45058;55.772;38.224;2023-12-04T02:29:00;19.03;;;9.70;;
58240;SDS011;45058;55.772;38.224;2023-12-04T02:31:34;20.60;;;8.73;;
58240;SDS011;45058;55.772;38.224;2023-12-04T02:34:00;18.00;;;8.30;;
58240;SDS011;45058;55.772;38.224;2023-12-04T02:36:26;15.37;;;7.53;;
58240;SDS011;45058;55.772;38.224;2023-12-04T02:38:53;18.13;;;7.80;;
58240;SDS011;45058;55.772;38.224;2023-12-04T02:41:20;18.67;;;8.93;;
58240;SDS011;45058;55.772;38.224;2023-12-04T02:43:46;15.13;;;7.93;;
58240;SDS011;45058;55.772;38.224;2023-12-04T02:46:12;16.93;;;8.37;;
58240;SDS011;45058;55.772;38.224;2023-12-04T02:48:38;17.07;;;8.40;;
58240;SDS011;45058;55.772;38.224;2023-12-04T02:51:04;17.73;;;8.20;;
58240;SDS011;45058;55.772;38.224;2023-12-04T02:53:31;18.80;;;8.00;;
58240;SDS011;45058;55.772;38.224;2023-12-04T02:55:57;19.37;;;8.80;;
58240;SDS011;45058;55.772;38.224;2023-12-04T02:58:23;17.40;;;8.53;;
58240;SDS011;45058;55.772;38.224;2023-12-04T03:00:49;17.13;;;8.20;;
58240;SDS011;45058;55.772;38.224;2023-12-04T03:03:15;18.20;;;8.33;;
58240;SDS011;45058;55.772;38.224;2023-12-04T03:05:41;16.10;;;7.67;;
58240;SDS011;45058;55.772;38.224;2023-12-04T03:08:07;17.23;;;8.37;;
58240;SDS011;45058;55.772;38.224;2023-12-04T03:10:33;17.67;;;8.10;;
58240;SDS011;45058;55.772;38.224;2023-12-04T03:12:59;19.67;;;9.17;;
58240;SDS011;45058;55.772;38.224;2023-12-04T03:15:25;20.90;;;9.40;;
58240;SDS011;45058;55.772;38.224;2023-12-04T03:17:54;16.27;;;8.13;;
58240;SDS011;45058;55.772;38.224;2023-12-04T03:20:20;17.70;;;8.70;;
58240;SDS011;45058;55.772;38.224;2023-12-04T03:22:47;19.20;;;8.13;;
58240;SDS011;45058;55.772;38.224;2023-12-04T03:25:13;19.93;;;9.33;;
58240;SDS011;45058;55.772;38.224;2023-12-04T03:27:39;17.47;;;8.60;;
58240;SDS011;45058;55.772;38.224;2023-12-04T03:30:05;17.27;;;7.97;;
58240;SDS011;45058;55.772;38.224;2023-12-04T03:32:31;20.87;;;8.10;;
58240;SDS011;45058;55.772;38.224;2023-12-04T03:34:58;19.43;;;9.37;;
58240;SDS011;45058;55.772;38.224;2023-12-04T03:37:24;22.00;;;9.67;;
58240;SDS011;45058;55.772;38.224;2023-12-04T03:39:50;22.97;;;11.80;;
58240;SDS011;45058;55.772;38.224;2023-12-04T03:42:16;31.10;;;14.73;;
58240;SDS011;45058;55.772;38.224;2023-12-04T03:44:42;26.17;;;12.37;;
58240;SDS011;45058;55.772;38.224;2023-12-04T03:47:08;28.00;;;12.43;;
58240;SDS011;45058;55.772;38.224;2023-12-04T03:49:35;21.57;;;10.10;;
58240;SDS011;45058;55.772;38.224;2023-12-04T03:52:01;20.13;;;9.57;;
58240;SDS011;45058;55.772;38.224;2023-12-04T03:54:27;22.00;;;10.13;;
58240;SDS011;45058;55.772;38.224;2023-12-04T03:56:53;19.77;;;9.53;;
58240;SDS011;45058;55.772;38.224;2023-12-04T03:59:19;23.40;;;10.40;;
58240;SDS011;45058;55.772;38.224;2023-12-04T04:01:45;21.13;;;9.93;;
58240;SDS011;45058;55.772;38.224;2023-12-04T04:04:11;20.73;;;10.20;;
58240;SDS011;45058;55.772;38.224;2023-12-04T04:06:37;22.33;;;10.07;;
58240;SDS011;45058;55.772;38.224;2023-12-04T04:09:04;21.03;;;10.10;;
58240;SDS011;45058;55.772;38.224;2023-12-04T04:11:31;20.40;;;9.57;;
58240;SDS011;45058;55.772;38.224;2023-12-04T04:13:57;19.93;;;10.13;;
58240;SDS011;45058;55.772;38.224;2023-12-04T04:16:23;20.30;;;9.97;;
58240;SDS011;45058;55.772;38.224;2023-12-04T04:18:50;21.00;;;11.00;;
58240;SDS011;45058;55.772;38.224;2023-12-04T04:21:16;23.07;;;10.13;;
58240;SDS011;45058;55.772;38.224;2023-12-04T04:23:42;19.37;;;9.50;;
58240;SDS011;45058;55.772;38.224;2023-12-04T04:26:08;21.23;;;10.70;;
58240;SDS011;45058;55.772;38.224;2023-12-04T04:28:34;21.07;;;10.80;;
58240;SDS011;45058;55.772;38.224;2023-12-04T04:31:00;21.73;;;11.07;;
58240;SDS011;45058;55.772;38.224;2023-12-04T04:33:26;20.80;;;10.00;;
58240;SDS011;45058;55.772;38.224;2023-12-04T04:35:52;17.10;;;9.30;;
58240;SDS011;45058;55.772;38.224;2023-12-04T04:38:18;23.53;;;11.23;;
58240;SDS011;45058;55.772;38.224;2023-12-04T04:40:44;19.23;;;9.10;;
58240;SDS011;45058;55.772;38.224;2023-12-04T04:43:11;18.40;;;10.30;;
58240;SDS011;45058;55.772;38.224;2023-12-04T04:45:37;19.80;;;9.43;;
58240;SDS011;45058;55.772;38.224;2023-12-04T04:48:03;20.27;;;10.10;;
58240;SDS011;45058;55.772;38.224;2023-12-04T04:50:29;18.00;;;8.87;;
58240;SDS011;45058;55.772;38.224;2023-12-04T04:52:55;22.43;;;10.50;;
58240;SDS011;45058;55.772;38.224;2023-12-04T04:55:21;18.37;;;10.03;;
58240;SDS011;45058;55.772;38.224;2023-12-04T04:57:47;20.07;;;10.43;;
58240;SDS011;45058;55.772;38.224;2023-12-04T05:00:13;24.40;;;10.57;;
58240;SDS011;45058;55.772;38.224;2023-12-04T05:02:41;16.97;;;8.80;;
58240;SDS011;45058;55.772;38.224;2023-12-04T05:05:08;22.47;;;10.10;;
58240;SDS011;45058;55.772;38.224;2023-12-04T05:07:34;19.07;;;9.63;;
58240;SDS011;45058;55.772;38.224;2023-12-04T05:10:00;18.53;;;9.67;;
58240;SDS011;45058;55.772;38.224;2023-12-04T05:12:26;17.73;;;9.80;;
58240;SDS011;45058;55.772;38.224;2023-12-04T05:14:52;19.77;;;9.90;;
58240;SDS011;45058;55.772;38.224;2023-12-04T05:17:18;19.93;;;10.53;;
58240;SDS011;45058;55.772;38.224;2023-12-04T05:19:44;18.70;;;9.33;;
58240;SDS011;45058;55.772;38.224;2023-12-04T05:22:10;21.10;;;10.37;;
58240;SDS011;45058;55.772;38.224;2023-12-04T05:24:37;19.73;;;10.43;;
58240;SDS011;45058;55.772;38.224;2023-12-04T05:27:03;22.77;;;10.37;;
58240;SDS011;45058;55.772;38.224;2023-12-04T05:29:29;22.00;;;11.20;;
58240;SDS011;45058;55.772;38.224;2023-12-04T05:31:55;19.47;;;10.33;;
58240;SDS011;45058;55.772;38.224;2023-12-04T05:34:23;22.53;;;11.13;;
58240;SDS011;45058;55.772;38.224;2023-12-04T05:36:49;20.37;;;10.40;;
58240;SDS011;45058;55.772;38.224;2023-12-04T05:39:15;22.87;;;9.93;;
58240;SDS011;45058;55.772;38.224;2023-12-04T05:41:42;23.47;;;10.57;;
58240;SDS011;45058;55.772;38.224;2023-12-04T05:44:08;21.33;;;11.13;;
58240;SDS011;45058;55.772;38.224;2023-12-04T05:46:34;20.70;;;10.70;;
58240;SDS011;45058;55.772;38.224;2023-12-04T05:49:00;21.53;;;11.83;;
58240;SDS011;45058;55.772;38.224;2023-12-04T05:51:27;20.80;;;11.00;;
58240;SDS011;45058;55.772;38.224;2023-12-04T05:53:53;23.93;;;12.13;;
58240;SDS011;45058;55.772;38.224;2023-12-04T05:56:19;24.63;;;12.37;;
58240;SDS011;45058;55.772;38.224;2023-12-04T05:58:45;19.50;;;11.20;;
58240;SDS011;45058;55.772;38.224;2023-12-04T06:01:11;22.83;;;11.50;;
58240;SDS011;45058;55.772;38.224;2023-12-04T06:03:37;25.17;;;12.13;;
58240;SDS011;45058;55.772;38.224;2023-12-04T06:06:03;23.70;;;11.80;;
58240;SDS011;45058;55.772;38.224;2023-12-04T06:08:30;21.17;;;11.23;;
58240;SDS011;45058;55.772;38.224;2023-12-04T06:10:56;18.30;;;11.23;;
58240;SDS011;45058;55.772;38.224;2023-12-04T06:13:22;23.17;;;12.17;;
58240;SDS011;45058;55.772;38.224;2023-12-04T06:15:48;23.10;;;12.10;;
58240;SDS011;45058;55.772;38.224;2023-12-04T06:18:14;21.97;;;12.20;;
58240;SDS011;45058;55.772;38.224;2023-12-04T06:20:40;26.30;;;10.90;;
58240;SDS011;45058;55.772;38.224;2023-12-04T06:23:06;23.73;;;11.53;;
58240;SDS011;45058;55.772;38.224;2023-12-04T06:25:33;19.13;;;10.67;;
58240;SDS011;45058;55.772;38.224;2023-12-04T06:28:00;23.40;;;10.33;;
58240;SDS011;45058;55.772;38.224;2023-12-04T06:30:26;18.63;;;10.33;;
58240;SDS011;45058;55.772;38.224;2023-12-04T06:32:52;22.30;;;11.77;;
58240;SDS011;45058;55.772;38.224;2023-12-04T06:35:19;22.10;;;11.07;;
58240;SDS011;45058;55.772;38.224;2023-12-04T06:37:45;19.97;;;10.30;;
58240;SDS011;45058;55.772;38.224;2023-12-04T06:40:12;22.43;;;12.03;;
58240;SDS011;45058;55.772;38.224;2023-12-04T06:42:38;18.90;;;10.73;;
58240;SDS011;45058;55.772;38.224;2023-12-04T06:45:05;22.43;;;11.57;;
58240;SDS011;45058;55.772;38.224;2023-12-04T06:47:32;22.93;;;10.77;;
58240;SDS011;45058;55.772;38.224;2023-12-04T06:50:00;25.73;;;12.47;;
58240;SDS011;45058;55.772;38.224;2023-12-04T06:52:26;22.50;;;11.43;;
58240;SDS011;45058;55.772;38.224;2023-12-04T06:54:52;24.47;;;11.70;;
58240;SDS011;45058;55.772;38.224;2023-12-04T06:57:18;20.73;;;9.77;;
58240;SDS011;45058;55.772;38.224;2023-12-04T06:59:45;22.37;;;11.40;;
58240;SDS011;45058;55.772;38.224;2023-12-04T07:02:11;23.90;;;11.60;;
58240;SDS011;45058;55.772;38.224;2023-12-04T07:04:38;29.70;;;14.97;;
58240;SDS011;45058;55.772;38.224;2023-12-04T07:07:05;22.93;;;11.93;;
58240;SDS011;45058;55.772;38.224;2023-12-04T07:09:32;23.37;;;11.77;;
58240;SDS011;45058;55.772;38.224;2023-12-04T07:11:58;23.37;;;12.50;;
58240;SDS011;45058;55.772;38.224;2023-12-04T07:14:24;22.50;;;12.07;;
58240;SDS011;45058;55.772;38.224;2023-12-04T07:16:51;24.90;;;11.93;;
58240;SDS011;45058;55.772;38.224;2023-12-04T07:19:17;24.47;;;11.00;;
58240;SDS011;45058;55.772;38.224;2023-12-04T07:21:43;22.30;;;11.83;;
58240;SDS011;45058;55.772;38.224;2023-12-04T07:24:09;23.50;;;12.50;;
58240;SDS011;45058;55.772;38.224;2023-12-04T07:26:35;21.83;;;11.53;;
58240;SDS011;45058;55.772;38.224;2023-12-04T07:29:02;23.00;;;11.13;;
58240;SDS011;45058;55.772;38.224;2023-12-04T07:31:29;24.13;;;12.67;;
58240;SDS011;45058;55.772;38.224;2023-12-04T07:33:55;24.77;;;12.30;;
58240;SDS011;45058;55.772;38.224;2023-12-04T07:36:21;22.80;;;11.17;;
58240;SDS011;45058;55.772;38.224;2023-12-04T07:38:49;22.13;;;11.70;;
58240;SDS011;45058;55.772;38.224;2023-12-04T07:41:19;22.83;;;12.40;;
58240;SDS011;45058;55.772;38.224;2023-12-04T07:43:46;23.57;;;11.13;;
58240;SDS011;45058;55.772;38.224;2023-12-04T07:46:12;22.93;;;10.43;;
58240;SDS011;45058;55.772;38.224;2023-12-04T07:48:39;20.03;;;10.63;;
58240;SDS011;45058;55.772;38.224;2023-12-04T07:51:06;21.53;;;10.80;;
58240;SDS011;45058;55.772;38.224;2023-12-04T07:53:33;20.90;;;11.33;;
58240;SDS011;45058;55.772;38.224;2023-12-04T07:56:02;20.23;;;11.57;;
58240;SDS011;45058;55.772;38.224;2023-12-04T07:58:30;20.07;;;10.73;;
58240;SDS011;45058;55.772;38.224;2023-12-04T08:00:57;21.13;;;10.77;;
58240;SDS011;45058;55.772;38.224;2023-12-04T08:03:24;16.30;;;8.90;;
58240;SDS011;45058;55.772;38.224;2023-12-04T08:05:51;21.93;;;9.73;;
58240;SDS011;45058;55.772;38.224;2023-12-04T08:08:17;18.93;;;10.73;;
58240;SDS011;45058;55.772;38.224;2023-12-04T08:10:43;16.67;;;9.00;;
58240;SDS011;45058;55.772;38.224;2023-12-04T08:13:09;17.70;;;9.60;;
58240;SDS011;45058;55.772;38.224;2023-12-04T08:15:36;16.80;;;9.90;;
58240;SDS011;45058;55.772;38.224;2023-12-04T08:18:02;19.03;;;10.03;;
58240;SDS011;45058;55.772;38.224;2023-12-04T08:20:28;18.30;;;10.33;;
58240;SDS011;45058;55.772;38.224;2023-12-04T08:22:54;19.23;;;10.07;;
58240;SDS011;45058;55.772;38.224;2023-12-04T08:25:20;21.13;;;10.53;;
58240;SDS011;45058;55.772;38.224;2023-12-04T08:27:47;22.53;;;9.53;;
58240;SDS011;45058;55.772;38.224;2023-12-04T08:30:15;18.10;;;10.27;;
58240;SDS011;45058;55.772;38.224;2023-12-04T08:32:41;18.47;;;9.80;;
58240;SDS011;45058;55.772;38.224;2023-12-04T08:35:07;22.80;;;10.40;;
58240;SDS011;45058;55.772;38.224;2023-12-04T08:37:33;17.17;;;9.73;;
58240;SDS011;45058;55.772;38.224;2023-12-04T08:40:00;16.33;;;10.03;;
58240;SDS011;45058;55.772;38.224;2023-12-04T08:42:26;19.93;;;10.33;;
58240;SDS011;45058;55.772;38.224;2023-12-04T08:44:52;20.07;;;10.87;;
58240;SDS011;45058;55.772;38.224;2023-12-04T08:47:19;18.67;;;10.43;;
58240;SDS011;45058;55.772;38.224;2023-12-04T08:49:45;17.87;;;10.40;;
58240;SDS011;45058;55.772;38.224;2023-12-04T08:52:12;17.23;;;9.03;;
58240;SDS011;45058;55.772;38.224;2023-12-04T08:54:41;19.60;;;10.37;;
58240;SDS011;45058;55.772;38.224;2023-12-04T08:57:08;18.63;;;9.90;;
58240;SDS011;45058;55.772;38.224;2023-12-04T08:59:34;19.63;;;9.77;;
58240;SDS011;45058;55.772;38.224;2023-12-04T09:02:06;19.27;;;10.60;;
58240;SDS011;45058;55.772;38.224;2023-12-04T09:04:32;19.83;;;10.33;;
58240;SDS011;45058;55.772;38.224;2023-12-04T09:06:59;20.07;;;10.60;;
58240;SDS011;45058;55.772;38.224;2023-12-04T09:09:25;19.87;;;10.77;;
58240;SDS011;45058;55.772;38.224;2023-12-04T09:11:52;21.10;;;11.53;;
58240;SDS011;45058;55.772;38.224;2023-12-04T09:14:18;22.60;;;11.03;;
58240;SDS011;45058;55.772;38.224;2023-12-04T09:16:45;20.37;;;10.63;;
58240;SDS011;45058;55.772;38.224;2023-12-04T09:19:11;18.07;;;10.20;;
58240;SDS011;45058;55.772;38.224;2023-12-04T09:21:38;20.40;;;9.73;;
58240;SDS011;45058;55.772;38.224;2023-12-04T09:24:04;23.33;;;11.40;;
58240;SDS011;45058;55.772;38.224;2023-12-04T09:26:31;16.23;;;9.27;;
58240;SDS011;45058;55.772;38.224;2023-12-04T09:28:57;20.37;;;10.17;;
58240;SDS011;45058;55.772;38.224;2023-12-04T09:31:23;17.83;;;9.57;;
58240;SDS011;45058;55.772;38.224;2023-12-04T09:33:50;20.97;;;10.87;;
58240;SDS011;45058;55.772;38.224;2023-12-04T09:36:16;21.37;;;11.73;;
58240;SDS011;45058;55.772;38.224;2023-12-04T09:38:43;20.67;;;11.63;;
58240;SDS011;45058;55.772;38.224;2023-12-04T09:41:10;18.70;;;9.60;;
58240;SDS011;45058;55.772;38.224;2023-12-04T09:43:36;18.50;;;10.40;;
58240;SDS011;45058;55.772;38.224;2023-12-04T09:46:03;21.13;;;10.10;;
58240;SDS011;45058;55.772;38.224;2023-12-04T09:48:30;20.33;;;10.70;;
58240;SDS011;45058;55.772;38.224;2023-12-04T09:51:01;20.13;;;10.17;;
58240;SDS011;45058;55.772;38.224;2023-12-04T09:53:28;20.87;;;10.93;;
58240;SDS011;45058;55.772;38.224;2023-12-04T09:55:57;27.90;;;11.80;;
58240;SDS011;45058;55.772;38.224;2023-12-04T09:58:27;19.20;;;10.77;;
58240;SDS011;45058;55.772;38.224;2023-12-04T10:00:55;21.37;;;11.30;;
58240;SDS011;45058;55.772;38.224;2023-12-04T10:03:24;22.93;;;11.60;;
58240;SDS011;45058;55.772;38.224;2023-12-04T10:05:50;24.47;;;11.93;;
58240;SDS011;45058;55.772;38.224;2023-12-04T10:08:20;21.60;;;10.10;;
58240;SDS011;45058;55.772;38.224;2023-12-04T10:10:54;21.67;;;12.10;;
58240;SDS011;45058;55.772;38.224;2023-12-04T10:13:21;21.70;;;11.83;;
58240;SDS011;45058;55.772;38.224;2023-12-04T10:15:50;25.67;;;13.33;;
58240;SDS011;45058;55.772;38.224;2023-12-04T10:18:30;21.97;;;12.13;;
58240;SDS011;45058;55.772;38.224;2023-12-04T10:20:58;24.03;;;13.20;;
58240;SDS011;45058;55.772;38.224;2023-12-04T10:23:38;22.20;;;11.43;;
58240;SDS011;45058;55.772;38.224;2023-12-04T10:26:14;23.13;;;12.53;;
58240;SDS011;45058;55.772;38.224;2023-12-04T10:29:03;25.77;;;12.37;;
58240;SDS011;45058;55.772;38.224;2023-12-04T10:34:01;26.97;;;13.13;;
58240;SDS011;45058;55.772;38.224;2023-12-04T10:36:29;27.33;;;13.03;;
58240;SDS011;45058;55.772;38.224;2023-12-04T10:38:58;26.33;;;14.07;;
58240;SDS011;45058;55.772;38.224;2023-12-04T10:41:26;27.27;;;14.00;;
58240;SDS011;45058;55.772;38.224;2023-12-04T10:43:55;29.93;;;15.33;;
58240;SDS011;45058;55.772;38.224;2023-12-04T10:46:24;36.90;;;17.80;;
58240;SDS011;45058;55.772;38.224;2023-12-04T10:48:52;35.20;;;18.00;;
58240;SDS011;45058;55.772;38.224;2023-12-04T10:51:19;31.63;;;16.10;;
58240;SDS011;45058;55.772;38.224;2023-12-04T10:53:49;29.80;;;14.43;;
58240;SDS011;45058;55.772;38.224;2023-12-04T10:56:23;25.60;;;13.23;;
58240;SDS011;45058;55.772;38.224;2023-12-04T10:58:59;28.90;;;12.33;;
58240;SDS011;45058;55.772;38.224;2023-12-04T11:01:27;24.60;;;12.77;;
58240;SDS011;45058;55.772;38.224;2023-12-04T11:03:58;26.17;;;13.20;;
58240;SDS011;45058;55.772;38.224;2023-12-04T11:06:32;25.50;;;12.83;;
58240;SDS011;45058;55.772;38.224;2023-12-04T11:09:03;24.67;;;11.77;;
58240;SDS011;45058;55.772;38.224;2023-12-04T11:11:34;22.93;;;11.67;;
58240;SDS011;45058;55.772;38.224;2023-12-04T11:14:05;22.73;;;12.67;;
58240;SDS011;45058;55.772;38.224;2023-12-04T11:16:38;28.93;;;13.13;;
58240;SDS011;45058;55.772;38.224;2023-12-04T11:19:23;25.70;;;13.23;;
58240;SDS011;45058;55.772;38.224;2023-12-04T11:22:13;24.50;;;12.53;;
58240;SDS011;45058;55.772;38.224;2023-12-04T11:24:48;28.57;;;13.53;;
58240;SDS011;45058;55.772;38.224;2023-12-04T11:27:18;27.37;;;13.33;;
58240;SDS011;45058;55.772;38.224;2023-12-04T11:29:45;27.43;;;13.90;;
58240;SDS011;45058;55.772;38.224;2023-12-04T11:32:15;40.37;;;14.43;;
58240;SDS011;45058;55.772;38.224;2023-12-04T11:34:47;26.97;;;13.97;;
58240;SDS011;45058;55.772;38.224;2023-12-04T11:37:22;28.53;;;13.10;;
58240;SDS011;45058;55.772;38.224;2023-12-04T11:39:49;25.53;;;13.33;;
58240;SDS011;45058;55.772;38.224;2023-12-04T11:42:19;26.33;;;12.73;;
58240;SDS011;45058;55.772;38.224;2023-12-04T11:44:48;30.07;;;14.17;;
58240;SDS011;45058;55.772;38.224;2023-12-04T11:47:17;26.53;;;13.60;;
58240;SDS011;45058;55.772;38.224;2023-12-04T11:49:44;30.50;;;15.77;;
58240;SDS011;45058;55.772;38.224;2023-12-04T11:52:11;29.40;;;15.63;;
58240;SDS011;45058;55.772;38.224;2023-12-04T11:54:56;32.80;;;17.17;;
58240;SDS011;45058;55.772;38.224;2023-12-04T11:57:33;27.83;;;15.67;;
58240;SDS011;45058;55.772;38.224;2023-12-04T12:03:01;29.70;;;14.37;;
58240;SDS011;45058;55.772;38.224;2023-12-04T12:05:30;28.50;;;13.80;;
58240;SDS011;45058;55.772;38.224;2023-12-04T12:07:59;27.30;;;13.93;;
58240;SDS011;45058;55.772;38.224;2023-12-04T12:10:27;30.70;;;15.17;;
58240;SDS011;45058;55.772;38.224;2023-12-04T12:12:56;37.50;;;16.10;;
58240;SDS011;45058;55.772;38.224;2023-12-04T12:15:22;35.87;;;17.83;;
58240;SDS011;45058;55.772;38.224;2023-12-04T12:17:49;38.63;;;17.47;;
58240;SDS011;45058;55.772;38.224;2023-12-04T12:20:17;45.53;;;20.73;;
58240;SDS011;45058;55.772;38.224;2023-12-04T12:22:44;38.23;;;19.40;;
58240;SDS011;45058;55.772;38.224;2023-12-04T12:25:12;39.67;;;18.97;;
58240;SDS011;45058;55.772;38.224;2023-12-04T12:27:39;38.77;;;18.70;;
58240;SDS011;45058;55.772;38.224;2023-12-04T12:30:06;37.80;;;19.90;;
58240;SDS011;45058;55.772;38.224;2023-12-04T12:32:33;41.57;;;22.37;;
58240;SDS011;45058;55.772;38.224;2023-12-04T12:35:01;44.73;;;23.43;;
58240;SDS011;45058;55.772;38.224;2023-12-04T12:37:30;58.13;;;20.13;;
58240;SDS011;45058;55.772;38.224;2023-12-04T12:39:57;28.50;;;14.33;;
58240;SDS011;45058;55.772;38.224;2023-12-04T12:42:28;40.47;;;16.60;;
58240;SDS011;45058;55.772;38.224;2023-12-04T12:44:59;45.93;;;14.97;;
58240;SDS011;45058;55.772;38.224;2023-12-04T12:47:26;32.40;;;13.20;;
58240;SDS011;45058;55.772;38.224;2023-12-04T12:49:56;31.00;;;15.97;;
58240;SDS011;45058;55.772;38.224;2023-12-04T12:52:23;33.97;;;17.07;;
58240;SDS011;45058;55.772;38.224;2023-12-04T12:54:58;26.40;;;13.98;;
58240;SDS011;45058;55.772;38.224;2023-12-04T12:57:24;34.97;;;17.07;;
58240;SDS011;45058;55.772;38.224;2023-12-04T12:59:52;32.77;;;16.67;;
58240;SDS011;45058;55.772;38.224;2023-12-04T13:02:19;32.37;;;15.63;;
58240;SDS011;45058;55.772;38.224;2023-12-04T13:04:50;32.53;;;15.43;;
58240;SDS011;45058;55.772;38.224;2023-12-04T13:07:17;35.57;;;16.23;;
58240;SDS011;45058;55.772;38.224;2023-12-04T13:09:46;28.53;;;15.70;;
58240;SDS011;45058;55.772;38.224;2023-12-04T13:12:14;33.77;;;16.23;;
58240;SDS011;45058;55.772;38.224;2023-12-04T13:14:40;28.97;;;13.97;;
58240;SDS011;45058;55.772;38.224;2023-12-04T13:17:06;31.67;;;16.13;;
58240;SDS011;45058;55.772;38.224;2023-12-04T13:19:36;27.80;;;13.83;;
58240;SDS011;45058;55.772;38.224;2023-12-04T13:22:03;33.40;;;15.93;;
58240;SDS011;45058;55.772;38.224;2023-12-04T13:24:29;41.40;;;15.93;;
58240;SDS011;45058;55.772;38.224;2023-12-04T13:26:56;34.50;;;16.23;;
58240;SDS011;45058;55.772;38.224;2023-12-04T13:29:26;38.20;;;16.53;;
58240;SDS011;45058;55.772;38.224;2023-12-04T13:31:52;32.23;;;14.90;;
58240;SDS011;45058;55.772;38.224;2023-12-04T13:34:19;27.83;;;13.67;;
58240;SDS011;45058;55.772;38.224;2023-12-04T13:36:46;31.33;;;14.77;;
58240;SDS011;45058;55.772;38.224;2023-12-04T13:39:16;26.20;;;12.70;;
58240;SDS011;45058;55.772;38.224;2023-12-04T13:41:45;21.93;;;11.93;;
58240;SDS011;45058;55.772;38.224;2023-12-04T13:44:30;24.20;;;12.33;;
58240;SDS011;45058;55.772;38.224;2023-12-04T13:46:59;26.13;;;12.97;;
58240;SDS011;45058;55.772;38.224;2023-12-04T13:49:25;24.47;;;12.40;;
58240;SDS011;45058;55.772;38.224;2023-12-04T13:51:51;28.77;;;12.57;;
58240;SDS011;45058;55.772;38.224;2023-12-04T13:54:19;22.93;;;12.57;;
58240;SDS011;45058;55.772;38.224;2023-12-04T13:56:48;23.93;;;12.23;;
58240;SDS011;45058;55.772;38.224;2023-12-04T13:59:20;23.13;;;11.90;;
58240;SDS011;45058;55.772;38.224;2023-12-04T14:01:48;24.33;;;11.70;;
58240;SDS011;45058;55.772;38.224;2023-12-04T14:04:17;24.70;;;11.83;;
58240;SDS011;45058;55.772;38.224;2023-12-04T14:06:44;24.40;;;11.67;;
58240;SDS011;45058;55.772;38.224;2023-12-04T14:09:11;27.93;;;13.70;;
58240;SDS011;45058;55.772;38.224;2023-12-04T14:11:46;23.47;;;11.90;;
58240;SDS011;45058;55.772;38.224;2023-12-04T14:14:13;23.73;;;12.87;;
58240;SDS011;45058;55.772;38.224;2023-12-04T14:16:43;25.77;;;12.30;;
58240;SDS011;45058;55.772;38.224;2023-12-04T14:19:12;28.60;;;13.23;;
58240;SDS011;45058;55.772;38.224;2023-12-04T14:21:42;24.60;;;12.90;;